• Join FlightAware (Why Join?)
  • Login
  • US Flag 
10:57PM EST


 

Airport Tracker/Info


-or-


 

Live Flight TrackerFlight Track Log ✈ AAL1459 ✈ 28-Feb-2014 ✈ KORD - KRNO

Flight Track Log - Related Links

Times and Time Zones

All times are in EST time to prevent confusion due to time zone crossing. See the AAL1459 flight status page for this flight to view local times or setup timezone preferences in your user account.

Time Position Orientation Groundspeed Altitude Reporting Facility
EST Latitude Longitude Course Direction KTS MPH feet Rate Location/Type
07:00PM 41.9849 -87.8741 76° East 173 199 1,500  Level FlightAware ADS-B (KMDW)
07:00PM 41.9883 -87.8646 55° Northeast 190 219 1,800 1,800 Climbing FlightAware ADS-B (KMDW)
07:00PM 41.9938 -87.8572 37° Northeast 208 239 2,100 1,140 Climbing FlightAware ADS-B (KMDW)
07:00PM 42.0044 -87.8496 22° Northeast 225 259 2,200 960 Climbing FlightAware ADS-B (KMDW)
07:00PM 42.0129 -87.8469 11° North 236 272 2,400 1,620 Climbing FlightAware ADS-B (KMDW)
07:01PM 42.0380 -87.8515 339° North 262 302 3,100 1,920 Climbing FlightAware ADS-B (KMDW)
07:01PM 42.0495 -87.8594 329° Northwest 262 302 3,500 2,100 Climbing FlightAware ADS-B (KMDW)
07:02PM 42.0796 -87.8870 325° Northwest 248 285 4,500 1,260 Climbing FlightAware ADS-B (KMDW)
07:02PM 42.1183 -87.9242 325° Northwest 259 298 5,000 1,200 Climbing FlightAware ADS-B (KMDW)
07:03PM 42.1409 -87.9454 325° Northwest 259 298 5,800 2,640 Climbing FlightAware ADS-B (KMDW)
07:03PM 42.1640 -87.9718 308° West 252 290 7,100 3,000 Climbing FlightAware ADS-B (KMDW)
07:03PM 42.1682 -87.9814 295° West 248 285 7,600 3,060 Climbing FlightAware ADS-B (KMDW)
07:04PM 42.1785 -88.0130 293° West 246 283 8,700 3,000 Climbing FlightAware ADS-B (KMDW)
07:04PM 42.1880 -88.0584 271° West 247 284 10,400 2,340 Climbing FlightAware ADS-B (KMDW)
07:06PM 42.1836 -88.2251 269° West 259 298 14,100 1,860 Climbing FlightAware ADS-B (KMDW)
07:06PM 42.1814 -88.2873 268° West 296 341 14,700 1,020 Climbing FlightAware ADS-B (KMDW)
07:07PM 42.1795 -88.3422 268° West 320 368 15,500 840 Climbing FlightAware ADS-B (KPWK)
07:08PM 42.1764 -88.4493 268° West 329 379 15,900 300 Climbing FlightAware ADS-B (KMDW)
07:08PM 42.1737 -88.5241 267° West 329 379 15,900 900 Level FlightAware ADS-B (KMDW)
07:09PM 42.1714 -88.5806 267° West 338 389 17,200 1,860 Climbing FlightAware ADS-B (KPWK)
07:10PM 42.1674 -88.6944 267° West 343 395 18,500 1,680 Climbing FlightAware ADS-B (KMDW)
07:10PM 42.1661 -88.7369 268° West 344 396 19,200 1,920 Climbing FlightAware ADS-B (KMDW)
07:11PM 42.1629 -88.8353 268° West 351 404 20,600 2,400 Climbing FlightAware ADS-B (KMDW)
07:11PM 42.1654 -88.7575 268° West 357 411 21,600 1,800 Climbing FlightAware ADS-B (KPWK)
07:12PM 42.1654 -88.7575 267° West 362 417 22,500 1,680 Climbing FlightAware ADS-B (KPWK)
07:12PM 42.1654 -88.7575 267° West 362 417 23,500 1,620 Climbing FlightAware ADS-B (KPWK)
07:13PM 42.1654 -88.7575 268° West 365 420 24,400 1,320 Climbing FlightAware ADS-B (KPWK)
07:15PM 42.1477 -89.4074 268° West 389 448 26,900 1,260 Climbing FlightAware ADS-B (KMDW)
07:16PM 42.1439 -89.5328 268° West 396 456 28,000 1,260 Climbing FlightAware ADS-B (KMDW)
07:16PM 42.1409 -89.6311 268° West 399 459 28,900 1,320 Climbing FlightAware ADS-B (KMDW)
07:17PM 42.1385 -89.7087 268° West 401 461 29,700 1,500 Climbing FlightAware ADS-B (KMDW)
07:18PM 42.1343 -89.8414 268° West 393 452 31,100 1,560 Climbing FlightAware ADS-B (KMDW)
07:18PM 42.1317 -89.9235 268° West 389 448 31,900 1,380 Climbing FlightAware ADS-B (KMDW)
07:19PM 42.1288 -90.0129 268° West 387 445 32,700 1,080 Climbing FlightAware ADS-B (KMDW)
07:21PM 42.1184 -90.3227 267° West 383 441 35,000 1,020 Climbing FlightAware ADS-B (KMDW)
07:22PM 42.1157 -90.3957 267° West 382 440 35,500 720 Climbing FlightAware ADS-B (KMDW)
07:22PM 42.1142 -90.4644 267° West 383 441 35,800 300 Climbing Chicago Center
07:23PM 42.1092 -90.6058 267° West 381 438 36,000  Climbing Chicago Center
07:29PM 42.0812 -91.4613 271° West 373 429 36,000  Level FlightAware ADS-B (LPVM)
07:30PM 42.0820 -91.5457 271° West 374 430 36,000  Level FlightAware ADS-B (LPVM)
07:31PM 42.0838 -91.6955 271° West 376 433 36,000  Level FlightAware ADS-B (LPVM)
07:33PM 42.0856 -91.9318 271° West 376 433 36,000  Level FlightAware ADS-B (LPVM)
07:37PM 42.0886 -92.4933 271° West 368 423 36,000  Level FlightAware ADS-B (LPVM)
07:38PM 42.0884 -92.6391 270° West 363 418 36,000  Level FlightAware ADS-B (LPVM)
07:38PM 42.0881 -92.7175 270° West 366 421 36,000  Level Minneapolis Center
07:40PM 42.0892 -92.8525 271° West 366 421 36,000  Level Minneapolis Center
07:45PM 42.0954 -93.6168 278° West 366 421 36,000  Level FlightAware ADS-B
07:46PM 42.1036 -93.7031 278° West 368 423 36,000  Level FlightAware ADS-B
07:47PM 42.1083 -93.7510 277° West 371 427 36,000  Level FlightAware ADS-B
07:47PM 42.1216 -93.8918 277° West 371 427 36,000  Level FlightAware ADS-B
07:48PM 42.1300 -93.9811 277° West 371 427 36,000  Level FlightAware ADS-B
07:49PM 42.1360 -94.0472 277° West 371 427 36,000  Level FlightAware ADS-B
07:49PM 42.1500 -94.1982 277° West 369 425 36,000  Level FlightAware ADS-B
07:50PM 42.1559 -94.2632 277° West 367 422 36,000  Level FlightAware ADS-B
07:51PM 42.1613 -94.3224 277° West 366 421 36,000  Level FlightAware ADS-B
07:51PM 42.1741 -94.4650 277° West 365 420 36,000  Level FlightAware ADS-B (LPVM)
07:52PM 42.1770 -94.4971 277° West 365 420 36,000  Level FlightAware ADS-B (LPVM)
07:52PM 42.1825 -94.5613 277° West 360 414 36,000  Level FlightAware ADS-B
07:53PM 42.1946 -94.7000 277° West 356 410 36,000  Level FlightAware ADS-B
07:54PM 42.1951 -94.7053 277° West 356 410 36,000  Level FlightAware ADS-B
07:54PM 42.2033 -94.7995 277° West 352 405 36,000  Level FlightAware ADS-B (LPVM)
07:55PM 42.2033 -94.7995 277° West 351 404 36,000  Level FlightAware ADS-B (LPVM)
07:57PM 42.2265 -95.0730 276° West 349 402 36,000  Level FlightAware ADS-B (LPVM)
07:57PM 42.2265 -95.0730 276° West 347 399 36,000  Level FlightAware ADS-B (LPVM)
08:02PM 42.2931 -95.9090 276° West 344 396 36,000  Level FlightAware ADS-B (LPVM)
08:03PM 42.3006 -96.0056 276° West 345 397 36,000  Level Minneapolis Center
08:04PM 42.3100 -96.1325 276° West 345 397 36,000  Level Minneapolis Center
08:05PM 42.3189 -96.2567 276° West 341 392 36,000  Level Minneapolis Center
08:06PM 42.3289 -96.3842 276° West 339 390 36,000  Level Minneapolis Center
08:07PM 42.3383 -96.5078 276° West 337 388 36,000  Level Minneapolis Center
08:08PM 42.3469 -96.6353 275° West 338 389 36,000  Level Minneapolis Center
08:09PM 42.3544 -96.7628 275° West 339 390 36,000  Level Minneapolis Center
08:10PM 42.3653 -96.9178 275° West 341 392 36,000  Level Minneapolis Center
08:11PM 42.3750 -97.0469 276° West 341 392 36,000  Level Minneapolis Center
08:12PM 42.3831 -97.1775 275° West 344 396 36,000  Level Minneapolis Center
08:13PM 42.3914 -97.3083 275° West 345 397 36,000  Level Minneapolis Center
08:14PM 42.3983 -97.4419 274° West 350 403 36,000  Level Minneapolis Center
08:15PM 42.4081 -97.5725 276° West 350 403 36,000  Level Minneapolis Center
08:17PM 42.4150 -97.7056 274° West 351 404 36,000  Level Minneapolis Center
08:18PM 42.4242 -97.8372 275° West 353 406 36,000  Level Minneapolis Center
08:19PM 42.4325 -97.9906 274° West 345 397 36,000  Level Minneapolis Center
08:20PM 42.4397 -98.1139 275° West 338 389 36,000  Level Minneapolis Center
08:21PM 42.4469 -98.2367 275° West 334 384 36,000  Level Minneapolis Center
08:22PM 42.4533 -98.3586 274° West 330 380 36,000  Level Minneapolis Center
08:23PM 42.4592 -98.4792 274° West 327 376 36,000  Level Minneapolis Center
08:24PM 42.4661 -98.6025 274° West 327 376 36,000  Level Minneapolis Center
08:25PM 42.4700 -98.7267 272° West 327 376 36,000  Level Minneapolis Center
08:26PM 42.4658 -98.8517 267° West 328 377 36,000  Level Minneapolis Center
08:27PM 42.4600 -99.0036 267° West 333 383 36,000  Level Minneapolis Center
08:28PM 42.4550 -99.1286 267° West 333 383 36,000  Level Minneapolis Center
08:29PM 42.4508 -99.2547 267° West 334 384 36,000  Level Minneapolis Center
08:30PM 42.4447 -99.3822 266° West 335 386 36,000  Level Minneapolis Center
08:31PM 42.4406 -99.5086 267° West 336 387 36,000  Level Minneapolis Center
08:32PM 42.4217 -99.6292 258° West 339 390 36,000  Level Minneapolis Center
08:33PM 42.3642 -99.7392 235° Southwest 355 409 36,000  Level Minneapolis Center
08:34PM 42.2958 -99.8722 235° Southwest 356 410 36,000  Level Minneapolis Center
08:35PM 42.2400 -99.9806 235° Southwest 356 410 36,000  Level Minneapolis Center
08:36PM 42.1819 -100.0919 235° Southwest 357 411 36,000  Level Minneapolis Center
08:37PM 42.1578 -100.2150 255° West 346 398 36,000  Level Minneapolis Center
08:38PM 42.1589 -100.3386 271° West 336 387 36,000  Level Minneapolis Center
08:39PM 42.1581 -100.4642 270° West 336 387 36,000  Level Minneapolis Center
08:40PM 42.1583 -100.5886 270° West 335 386 36,000  Level Minneapolis Center
08:46PM 42.1553 -101.3132 270° West 330 380 36,000  Level FlightAware ADS-B (KEIK)
08:46PM 42.1548 -101.3813 269° West 329 379 36,000  Level FlightAware ADS-B (KEIK)
08:47PM 42.1541 -101.4615 269° West 327 376 36,000  Level FlightAware ADS-B (KEIK)
08:47PM 42.1535 -101.5165 269° West 327 376 36,000  Level FlightAware ADS-B (KEIK)
08:48PM 42.1527 -101.5861 269° West 326 375 36,000  Level FlightAware ADS-B (KEIK)
08:49PM 42.1517 -101.6700 269° West 328 377 36,000  Level FlightAware ADS-B (KEIK)
08:49PM 42.1508 -101.7552 269° West 329 379 36,000  Level FlightAware ADS-B (KEIK)
08:50PM 42.1498 -101.8139 269° West 330 380 36,000  Level FlightAware ADS-B (KEIK)
08:50PM 42.1490 -101.8835 269° West 329 379 36,000  Level FlightAware ADS-B (KEIK)
08:51PM 42.1480 -101.9524 269° West 331 381 36,000  Level FlightAware ADS-B (KEIK)
08:52PM 42.1472 -102.0151 269° West 335 386 36,000  Level FlightAware ADS-B (KEIK)
08:52PM 42.1460 -102.1018 269° West 335 386 36,000  Level FlightAware ADS-B (KEIK)
08:53PM 42.1436 -102.2505 269° West 334 384 36,000  Level FlightAware ADS-B (KEIK)
08:54PM 42.1420 -102.3445 269° West 335 386 36,000  Level FlightAware ADS-B (KEIK)
08:55PM 42.1409 -102.4100 269° West 337 388 36,000  Level FlightAware ADS-B (KEIK)
08:55PM 42.1391 -102.5171 268° West 336 387 36,000  Level FlightAware ADS-B (KEIK)
08:56PM 42.1368 -102.6285 268° West 337 388 36,000  Level FlightAware ADS-B (KEIK)
08:57PM 42.1349 -102.7081 268° West 339 390 36,000  Level FlightAware ADS-B (KEIK)
08:58PM 42.1336 -102.7740 269° West 341 392 36,000  Level FlightAware ADS-B (KEIK)
08:58PM 42.1321 -102.8496 268° West 344 396 36,000  Level FlightAware ADS-B (KEIK)
08:59PM 42.1300 -102.9484 268° West 344 396 36,000  Level FlightAware ADS-B (KEIK)
09:00PM 42.1279 -103.0420 268° West 346 398 36,000  Level FlightAware ADS-B (KEIK)
09:00PM 42.1263 -103.1103 268° West 348 400 36,000  Level FlightAware ADS-B (KEIK)
09:01PM 42.1243 -103.1872 268° West 350 403 36,000  Level FlightAware ADS-B (KEIK)
09:01PM 42.1224 -103.2634 268° West 353 406 36,000  Level FlightAware ADS-B (KEIK)
09:02PM 42.1207 -103.3327 268° West 355 409 36,000  Level FlightAware ADS-B (KEIK)
09:03PM 42.1186 -103.4089 268° West 359 413 36,000  Level FlightAware ADS-B (KEIK)
09:03PM 42.1165 -103.4898 268° West 360 414 36,000  Level FlightAware ADS-B (KEIK)
09:04PM 42.1140 -103.5785 268° West 358 412 36,000  Level FlightAware ADS-B (KEIK)
09:04PM 42.1118 -103.6580 268° West 359 413 36,000  Level FlightAware ADS-B (KEIK)
09:05PM 42.1095 -103.7342 268° West 359 413 36,000  Level FlightAware ADS-B (KEIK)
09:05PM 42.1074 -103.8043 268° West 360 414 36,000  Level FlightAware ADS-B (KEIK)
09:06PM 42.1036 -103.9307 268° West 362 417 36,000  Level FlightAware ADS-B (KEIK)
09:07PM 42.1008 -104.0204 268° West 362 417 36,000  Level FlightAware ADS-B
09:08PM 42.0983 -104.0951 268° West 362 417 36,000  Level FlightAware ADS-B (KEIK)
09:08PM 42.0961 -104.1640 268° West 363 418 36,000  Level FlightAware ADS-B (KEIK)
09:09PM 42.0932 -104.2550 267° West 365 420 36,000  Level FlightAware ADS-B (KEIK)
09:09PM 42.0924 -104.2761 268° West 365 420 36,000  Level FlightAware ADS-B (KEIK)
09:09PM 42.0900 -104.3471 267° West 365 420 36,000  Level FlightAware ADS-B (KEIK)
09:10PM 42.0875 -104.4160 267° West 365 420 36,000  Level FlightAware ADS-B (KEIK)
09:11PM 42.0846 -104.4980 267° West 362 417 36,000  Level FlightAware ADS-B (KEIK)
09:11PM 42.0815 -104.5807 267° West 360 414 36,000  Level FlightAware ADS-B (KEIK)
09:12PM 42.0793 -104.6409 267° West 360 414 36,000  Level FlightAware ADS-B (KEIK)
09:12PM 42.0761 -104.7284 267° West 359 413 36,000  Level FlightAware ADS-B (KEIK)
09:13PM 42.0732 -104.8045 267° West 359 413 36,000  Level FlightAware ADS-B (KEIK)
09:13PM 42.0696 -104.8974 267° West 358 412 36,000  Level FlightAware ADS-B (KEIK)
09:14PM 42.0661 -104.9829 267° West 355 409 36,000  Level FlightAware ADS-B (KEIK)
09:15PM 42.0640 -105.0334 267° West 355 409 36,000  Level FlightAware ADS-B (KEIK)
09:15PM 42.0604 -105.1208 267° West 355 409 36,000  Level FlightAware ADS-B (KEIK)
09:16PM 42.0575 -105.1876 267° West 354 407 36,000  Level FlightAware ADS-B (KEIK)
09:17PM 42.0534 -105.2875 267° West 350 403 36,000  Level FlightAware ADS-B (KEIK)
09:17PM 42.0504 -105.3623 267° West 350 403 36,000  Level FlightAware ADS-B (KEIK)
09:18PM 42.0473 -105.4305 266° West 350 403 36,000  Level FlightAware ADS-B (KEIK)
09:18PM 42.0440 -105.5047 267° West 347 399 36,000  Level FlightAware ADS-B (KEIK)
09:19PM 42.0407 -105.5748 266° West 346 398 36,000  Level FlightAware ADS-B (KEIK)
09:19PM 42.0375 -105.6417 267° West 347 399 36,000  Level FlightAware ADS-B (KEIK)
09:20PM 42.0333 -105.7326 266° West 349 402 36,000  Level FlightAware ADS-B (KEIK)
09:21PM 42.0291 -105.8236 266° West 351 404 36,000  Level FlightAware ADS-B (KEIK)
09:21PM 42.0260 -105.8903 266° West 349 402 36,000  Level FlightAware ADS-B (KEIK)
09:22PM 42.0215 -105.9786 266° West 347 399 36,000  Level FlightAware ADS-B (KEIK)
09:22PM 42.0170 -106.0638 266° West 351 404 36,000  Level FlightAware ADS-B (KEIK)
09:23PM 42.0138 -106.1350 267° West 355 409 36,000  Level FlightAware ADS-B (KEIK)
09:24PM 42.0105 -106.2021 266° West 357 411 36,000  Level FlightAware ADS-B (KEIK)
09:24PM 42.0068 -106.2734 266° West 360 414 36,000  Level FlightAware ADS-B (KEIK)
09:25PM 42.0021 -106.3654 266° West 360 414 36,000  Level FlightAware ADS-B (KEIK)
09:25PM 41.9974 -106.4539 266° West 361 415 36,000  Level FlightAware ADS-B (KEIK)
09:26PM 41.9928 -106.5372 266° West 363 418 36,000  Level FlightAware ADS-B (KEIK)
09:27PM 41.9867 -106.6386 266° West 359 413 36,000  Level Denver Center
09:28PM 41.9797 -106.7889 266° West 360 414 36,000  Level Denver Center
09:29PM 41.9700 -106.9367 265° West 358 412 36,000  Level Denver Center
09:30PM 41.9631 -107.0861 266° West 358 412 36,000  Level Denver Center
09:31PM 41.9536 -107.2139 264° West 358 412 36,000  Level Denver Center
09:32PM 41.9450 -107.3656 266° West 362 417 36,000  Level Denver Center
09:33PM 41.9378 -107.4964 266° West 365 420 36,000  Level Denver Center
09:34PM 41.9275 -107.6478 265° West 364 419 36,000  Level Denver Center
09:35PM 41.9192 -107.7769 265° West 364 419 36,000  Level Denver Center
09:36PM 41.9097 -107.9275 265° West 364 419 36,000  Level Denver Center
09:37PM 41.9006 -108.0572 265° West 364 419 36,000  Level Denver Center
09:43PM 41.8493 -108.7907 264° West 364 419 36,000  Level FlightAware ADS-B (ZWAK / AKU)
09:43PM 41.8481 -108.8057 264° West 359 413 36,000  Level FlightAware ADS-B (ZWAK / AKU)
09:45PM 41.8281 -109.0682 264° West 361 415 36,000  Level FlightAware ADS-B (ZWAK / AKU)
09:47PM 41.8087 -109.3214 264° West 358 412 36,000  Level FlightAware ADS-B (ZWAK / AKU)
09:48PM 41.7981 -109.4550 264° West 352 405 36,000  Level FlightAware ADS-B (ZWAK / AKU)
09:48PM 41.7899 -109.5565 264° West 353 406 36,000  Level FlightAware ADS-B (ZWAK / AKU)
09:51PM 41.7635 -109.8811 264° West 355 409 36,000  Level FlightAware ADS-B (ZWAK / AKU)
09:53PM 41.7377 -110.1826 263° West 347 399 36,000  Level FlightAware ADS-B (ZWAK / AKU)
09:54PM 41.7261 -110.3175 263° West 348 400 36,000  Level FlightAware ADS-B (ZWAK / AKU)
09:56PM 41.7109 -110.4894 263° West 349 402 36,000  Level FlightAware ADS-B (ZWAK / AKU)
09:57PM 41.6947 -110.6705 263° West 355 409 36,000  Level FlightAware ADS-B (ZWAK / AKU)
09:58PM 41.6793 -110.8393 263° West 358 412 36,000  Level FlightAware ADS-B (ZWAK / AKU)
10:00PM 41.6624 -111.0207 263° West 363 418 36,000  Level FlightAware ADS-B (ZWAK / AKU)
10:02PM 41.6355 -111.3061 263° West 364 419 36,000  Level FlightAware ADS-B (ZWAK / AKU)
10:02PM 41.6289 -111.3736 262° West 365 420 36,000  Level FlightAware ADS-B
10:03PM 41.6198 -111.4656 263° West 363 418 36,000  Level FlightAware ADS-B (KBTF)
10:04PM 41.6135 -111.5311 263° West 362 417 36,000  Level FlightAware ADS-B (KBTF)
10:04PM 41.6042 -111.6263 263° West 358 412 36,000  Level FlightAware ADS-B (KBTF)
10:05PM 41.5978 -111.6910 263° West 358 412 36,000  Level FlightAware ADS-B (KBTF)
10:05PM 41.5884 -111.7846 262° West 359 413 36,000  Level FlightAware ADS-B (KBTF)
10:06PM 41.5861 -111.8075 264° West 358 412 36,000  Level FlightAware ADS-B (KBTF)
10:06PM 41.5798 -111.8720 263° West 362 417 36,000  Level FlightAware ADS-B
10:07PM 41.5728 -111.9410 262° West 364 419 36,000  Level FlightAware ADS-B (KBTF)
10:07PM 41.5649 -112.0178 262° West 367 422 36,000  Level FlightAware ADS-B
10:08PM 41.5582 -112.0822 262° West 367 422 36,000  Level FlightAware ADS-B
10:08PM 41.5507 -112.1544 262° West 371 427 36,000  Level FlightAware ADS-B
10:09PM 41.5428 -112.2300 262° West 375 432 36,000  Level FlightAware ADS-B (KBTF)
10:09PM 41.5353 -112.3011 262° West 378 435 36,000  Level FlightAware ADS-B (KBTF)
10:10PM 41.5276 -112.3739 262° West 381 438 36,000  Level FlightAware ADS-B (KBTF)
10:10PM 41.5203 -112.4423 262° West 382 440 36,000  Level FlightAware ADS-B (KBTF)
10:11PM 41.5121 -112.5201 262° West 384 442 36,000  Level FlightAware ADS-B (KBTF)
10:11PM 41.5045 -112.5925 262° West 386 444 36,000  Level FlightAware ADS-B (KBTF)
10:12PM 41.5005 -112.6296 263° West 386 444 36,000  Level FlightAware ADS-B (KBTF)
10:12PM 41.4954 -112.6752 263° West 386 444 36,000  Level FlightAware ADS-B (KBTF)
10:12PM 41.4905 -112.7204 262° West 384 442 36,000  Level FlightAware ADS-B
10:13PM 41.4828 -112.7928 262° West 379 436 36,000  Level FlightAware ADS-B
10:13PM 41.4747 -112.8664 262° West 376 433 36,000  Level FlightAware ADS-B
10:14PM 41.4691 -112.9166 263° West 377 434 36,000  Level FlightAware ADS-B (KBTF)
10:14PM 41.4663 -112.9408 263° West 378 435 36,000  Level FlightAware ADS-B (KBTF)
10:14PM 41.4639 -112.9623 263° West 379 436 36,000  Level FlightAware ADS-B (KBTF)
10:14PM 41.4614 -112.9845 263° West 380 437 36,000  Level FlightAware ADS-B (KBTF)
10:15PM 41.4533 -113.0567 261° West 387 445 36,000  Level FlightAware ADS-B
10:15PM 41.4448 -113.1338 263° West 391 450 36,000  Level FlightAware ADS-B (KBTF)
10:16PM 41.4367 -113.2050 261° West 396 456 36,000  Level FlightAware ADS-B
10:16PM 41.4331 -113.2360 263° West 395 455 36,000  Level FlightAware ADS-B (KBTF)
10:16PM 41.4248 -113.3091 262° West 399 459 36,000  Level FlightAware ADS-B (KBTF)
10:17PM 41.4166 -113.3813 262° West 400 460 36,000  Level FlightAware ADS-B (KBTF)
10:18PM 41.4072 -113.4638 262° West 395 455 36,000  Level FlightAware ADS-B (KBTF)
10:18PM 41.4000 -113.5262 262° West 394 453 36,000  Level FlightAware ADS-B (KBTF)
10:18PM 41.3919 -113.5948 262° West 394 453 36,000  Level FlightAware ADS-B (KBTF)
10:19PM 41.3830 -113.6699 262° West 394 453 36,000  Level FlightAware ADS-B (KBTF)
10:19PM 41.3774 -113.7176 261° West 394 453 36,000  Level FlightAware ADS-B
10:20PM 41.3684 -113.7946 261° West 395 455 36,000  Level FlightAware ADS-B
10:20PM 41.3571 -113.8649 253° West 390 449 36,000  Level FlightAware ADS-B
10:20PM 41.3540 -113.8779 252° West 390 449 36,000  Level FlightAware ADS-B
10:21PM 41.3359 -113.9528 253° West 389 448 36,000  Level FlightAware ADS-B (KBTF)
10:22PM 41.3139 -114.0433 253° West 394 453 36,000  Level FlightAware ADS-B (KBTF)
10:22PM 41.2960 -114.1158 253° West 399 459 36,000  Level FlightAware ADS-B (KBTF)
10:23PM 41.2744 -114.2035 253° West 400 460 36,000  Level FlightAware ADS-B (KBTF)
10:23PM 41.2560 -114.2786 253° West 400 460 36,000  Level FlightAware ADS-B (KBTF)
10:24PM 41.2333 -114.3714 253° West 402 463 36,000  Level FlightAware ADS-B (KBTF)
10:25PM 41.2100 -114.4662 253° West 402 463 36,000  Level FlightAware ADS-B (KBTF)
10:25PM 41.1868 -114.5593 252° West 405 466 36,000  Level FlightAware ADS-B (KBTF)
10:26PM 41.1684 -114.6334 253° West 401 461 36,000  Level FlightAware ADS-B (KBTF)
10:26PM 41.1465 -114.7214 252° West 404 465 36,000  Level FlightAware ADS-B (KBTF)
10:27PM 41.1277 -114.7957 252° West 405 466 36,000  Level FlightAware ADS-B (KBTF)
10:28PM 41.1092 -114.8695 252° West 405 466 36,000  Level FlightAware ADS-B (KBTF)
10:28PM 41.0911 -114.9408 251° West 405 466 36,000  Level FlightAware ADS-B (KBTF)
10:29PM 41.0691 -115.0280 251° West 406 467 36,000  Level FlightAware ADS-B (KBTF)
10:29PM 41.0474 -115.1132 251° West 411 473 36,000  Level FlightAware ADS-B (KBTF)
10:30PM 41.0202 -115.2197 251° West 417 480 36,000  Level FlightAware ADS-B (KBTF)
10:31PM 40.9998 -115.2990 252° West 416 479 36,000  Level FlightAware ADS-B (KBTF)
10:31PM 40.9718 -115.4079 252° West 417 480 36,000  Level FlightAware ADS-B (KBTF)
10:32PM 40.9451 -115.5117 252° West 417 480 36,000  Level FlightAware ADS-B (KBTF)
10:33PM 40.9203 -115.6071 252° West 419 482 36,000  Level FlightAware ADS-B (KBTF)
10:33PM 40.8951 -115.7036 252° West 423 487 36,000  Level FlightAware ADS-B (KBTF)
10:34PM 40.8690 -115.8039 252° West 425 489 36,000  Level FlightAware ADS-B (KBTF)
10:35PM 40.8447 -115.9000 252° West 425 489 36,000  Level Salt Lake Center
10:36PM 40.8006 -116.0647 251° West 425 489 36,000  Level Salt Lake Center
10:37PM 40.7628 -116.2056 251° West 426 490 36,000  Level Salt Lake Center
10:38PM 40.7242 -116.3481 250° West 430 495 36,000  Level Salt Lake Center
10:39PM 40.6806 -116.5142 251° West 430 495 36,000  Level Salt Lake Center
10:40PM 40.6414 -116.6558 250° West 432 497 36,000  Level Salt Lake Center
10:46PM 40.4092 -117.5323 251° West 438 504 36,000  Level FlightAware ADS-B (KAHC)
10:46PM 40.3849 -117.6231 251° West 439 505 36,000  Level FlightAware ADS-B (KAHC)
10:48PM 40.3149 -117.8830 251° West 443 510 36,000  Level FlightAware ADS-B (KAHC)
10:48PM 40.2936 -117.9618 251° West 445 512 36,000  Level FlightAware ADS-B (KAHC)
10:49PM 40.2731 -118.0377 251° West 446 513 36,000  Level FlightAware ADS-B (KAHC)
10:49PM 40.2529 -118.1128 251° West 441 507 36,000 -300 Level FlightAware ADS-B (KAHC)
10:50PM 40.2286 -118.2026 250° West 441 507 35,700 -2,160 Descending FlightAware ADS-B (KAHC)
10:53PM 40.1138 -118.6344 256° West 425 489 28,500 -2,460 Descending FlightAware ADS-B (KAHC)
10:54PM 40.0995 -118.7099 256° West 418 481 27,300 -2,580 Descending FlightAware ADS-B (KAHC)
10:54PM 40.0806 -118.8094 256° West 409 471 25,500 -2,580 Descending FlightAware ADS-B (KAHC)
10:55PM 40.0625 -118.9034 256° West 395 455 23,900 -2,520 Descending FlightAware ADS-B (KAHC)
10:56PM 40.0435 -118.9993 256° West 388 447 22,000 -2,700 Descending FlightAware ADS-B (KAHC)
10:56PM 40.0294 -119.0715 256° West 387 445 20,600 -2,460 Descending FlightAware ADS-B (KAHC)
10:57PM 40.0111 -119.1633 256° West 380 437 19,100 -2,220 Descending FlightAware ADS-B (KAHC)
10:57PM 39.9986 -119.2260 255° West 373 429 18,000 -1,920 Descending FlightAware ADS-B (KAHC)
10:58PM 39.9806 -119.3176 256° West 357 411 16,800 -1,380 Descending FlightAware ADS-B (KAHC)
10:59PM 39.9681 -119.3799 255° West 337 388 16,400 -900 Descending FlightAware ADS-B (KAHC)
10:59PM 39.9504 -119.4666 256° West 311 358 15,700 -1,140 Descending FlightAware ADS-B (KAHC)
11:00PM 39.9388 -119.5207 255° West 318 366 15,000 -1,320 Descending FlightAware ADS-B (KAHC)
11:00PM 39.9273 -119.5758 256° West 311 358 14,400 -1,260 Descending FlightAware ADS-B (KAHC)
11:01PM 39.9159 -119.6352 257° West 304 350 13,700 -1,260 Descending FlightAware ADS-B (KAHC)
11:01PM 39.9064 -119.6863 255° West 288 331 13,100 -1,380 Descending FlightAware ADS-B (KAHC)
11:02PM 39.9002 -119.7041 239° Southwest 279 321 12,800 -1,740 Descending FlightAware ADS-B (KAHC)
11:02PM 39.8962 -119.7105 215° Southwest 270 311 12,500 -1,440 Descending FlightAware ADS-B (KAHC)
11:02PM 39.8569 -119.7395 205° Southwest 265 305 11,800 -1,500 Descending FlightAware ADS-B (KAHC)
11:03PM 39.8236 -119.7596 205° Southwest 260 299 11,000 -1,380 Descending FlightAware ADS-B (KAHC)
11:03PM 39.8031 -119.7678 193° South 253 291 10,700 -960 Descending FlightAware ADS-B (KAHC)
11:03PM 39.7962 -119.7685 181° South 248 285 10,600 -1,140 Descending FlightAware ADS-B (KAHC)
11:04PM 39.7547 -119.7682 181° South 226 260 9,900 -1,440 Descending FlightAware ADS-B (KAHC)
11:05PM 39.7000 -119.7667 181° South 208 239 8,400 -1,380 Descending Northern Cal TRACON
11:06PM 39.6667 -119.7667 180° South 182 209 7,400 -1,020 Descending Northern Cal TRACON
11:07PM 39.6167 -119.7667 180° South 161 185 6,500 -960 Descending Northern Cal TRACON
11:08PM 39.5667 -119.7667 180° South 163 188 5,500 -960 Descending Northern Cal TRACON